LLBGLLSD

Guest
Details From LLBG - Tel Aviv Ben Gurion
To LLSD - Sde Dov
Flight Number -
Tags Routegen Generated
Created
Modified
Stats Distance 4 nm / 8 km
Max Altitude 0 ft / 0 m
Waypoints 2
Social Downloads 3
Likes 0
Share VATSIM

Download

Looking for another format? Having issues loading an existing format? Contact us
Advertisement - Login to hide

Notes

Departing runway 25 LLBG. Arriving runway 2 LLSD.

Route

LLBG +32.00_+034.78

ID Type Via Altitude Latitude Longitude Leg Dist Tot Dist Heading (true) Name
O LLBG APT - 0 ft / 0 m 32.01303˚ 34.86038˚ - 0 nm - -
O +32.00_+034.78 DME - 0 ft / 0 m 32.00011˚ 34.77642˚ 4 nm 4 nm 260° / 260° -

Altitude Profile

Advertisement - Login to hide

LLBG

Details ICAO LLBG (TLV)
Name Tel Aviv Ben Gurion
Region Israel
Timezone Asia/Jerusalem (UTC+3.0)
Stats Elevation 135 ft / 41 m (AMSL)
Location 32.011468° 34.885059°
Runways 3
Magnetic Variation 4.722° E

METAR

LLBG 201020Z 28008KT CAVOK 32/15 Q1010 BECMG 32010KT

Decode

TAF

TAF LLBG 200502Z 2006/2106 17004KT 9000 FEW010 BECMG 2007/2009 32012KT CAVOK BECMG 2015/2017 VRB04KT BECMG 2020/2022 7000 SCT010 PROB40 2023/2106 5000 BR BKN008 TX34/2011Z TN21/2103Z

Decode

Departure Runways

ID Width Length Bearing (true) Bearing (mag) Surface Threshold Offset Overrun Length
03 148 ft / 45 m 5,792 ft / 1,765 m 28.88° 24.16° Asphalt 0 ft / 0 m 216 ft / 66 m
08 148 ft / 45 m 12,017 ft / 3,663 m 79.72° 75.00° Asphalt 0 ft / 0 m 295 ft / 90 m
12 148 ft / 45 m 10,279 ft / 3,133 m 121.54° 116.82° Asphalt 0 ft / 0 m 328 ft / 100 m
21 148 ft / 45 m 5,792 ft / 1,765 m 208.88° 204.16° Asphalt 0 ft / 0 m 216 ft / 66 m
26 148 ft / 45 m 12,017 ft / 3,663 m 259.74° 255.02° Asphalt 1,969 ft / 600 m 205 ft / 62 m
30 148 ft / 45 m 10,279 ft / 3,133 m 301.56° 296.84° Asphalt 246 ft / 75 m 347 ft / 106 m

LLSD

Details ICAO LLSD (SDV)
Name Sde Dov
Region Israel
Timezone Asia/Jerusalem (UTC+3.0)
Stats Elevation 43 ft / 13 m (AMSL)
Location 32.114661° 34.782238°
Runways 1
Magnetic Variation 4.732° E

METAR

LLSD 200950Z 26007KT CAVOK 26/21 Q1011

Decode

TAF

TAF LLSD 200503Z 2006/2106 20005KT CAVOK BECMG 2007/2009 30012KT BECMG 2016/2018 VRB04KT BECMG 2020/2022 17005KT 7000 SCT010 PROB40 2023/2106 5000 BR BKN008 TX29/2011Z TN22/2103Z

Decode

Destination Runways

ID Width Length Bearing (true) Bearing (mag) Surface Threshold Offset Overrun Length
03 98 ft / 30 m 5,704 ft / 1,738 m 27.61° 22.88° Asphalt 341 ft / 104 m 0 ft / 0 m
21 98 ft / 30 m 5,704 ft / 1,738 m 207.61° 202.88° Asphalt 230 ft / 70 m 0 ft / 0 m

Popular Alternatives